createdAt,value
2022-11-21T00:00:46.951Z,27.05
2022-11-21T00:03:14.180Z,27.83
2022-11-21T00:05:42.448Z,27.20
2022-11-21T00:08:10.109Z,23.67
2022-11-21T00:10:37.772Z,25.20
2022-11-21T00:13:05.622Z,25.80
2022-11-21T00:15:33.295Z,24.98
2022-11-21T00:18:02.541Z,25.50
2022-11-21T00:20:29.179Z,25.08
2022-11-21T00:22:55.834Z,25.23
2022-11-21T00:25:22.902Z,24.42
2022-11-21T00:27:49.548Z,26.40
2022-11-21T00:30:16.287Z,25.13
2022-11-21T00:32:42.928Z,25.70
2022-11-21T00:35:09.674Z,27.63
2022-11-21T00:37:36.308Z,23.48
2022-11-21T00:40:03.220Z,26.20
2022-11-21T00:42:29.773Z,25.35
2022-11-21T00:44:56.464Z,26.58
2022-11-21T00:47:23.078Z,27.45
2022-11-21T00:49:49.742Z,27.38
2022-11-21T00:52:17.467Z,22.67
2022-11-21T00:54:44.388Z,25.25
2022-11-21T00:57:11.332Z,27.42
2022-11-21T00:59:37.983Z,26.20
2022-11-21T01:02:05.574Z,24.50
2022-11-21T01:04:33.926Z,25.00
2022-11-21T01:07:00.820Z,25.10
2022-11-21T01:09:28.852Z,27.23
2022-11-21T01:11:56.291Z,24.50
2022-11-21T01:14:23.037Z,26.30
2022-11-21T01:16:49.797Z,27.63
2022-11-21T01:19:16.582Z,25.92
2022-11-21T01:21:43.362Z,25.83
2022-11-21T01:24:11.874Z,24.80
2022-11-21T01:26:41.548Z,27.15
2022-11-21T01:29:09.013Z,26.20
2022-11-21T01:31:36.220Z,27.77
2022-11-21T01:34:03.027Z,27.30
2022-11-21T01:36:31.639Z,27.27
2022-11-21T01:39:00.577Z,25.67
2022-11-21T01:41:33.817Z,26.40
2022-11-21T01:44:01.923Z,27.25
2022-11-21T01:46:28.911Z,25.15
2022-11-21T01:48:58.401Z,26.80
2022-11-21T01:51:32.290Z,25.60
2022-11-21T01:54:03.412Z,26.33
2022-11-21T01:56:32.671Z,26.60
2022-11-21T01:59:01.342Z,27.40
2022-11-21T02:01:28.741Z,26.95
2022-11-21T02:03:56.079Z,28.42
2022-11-21T02:06:23.688Z,26.50
2022-11-21T02:08:50.666Z,25.58
2022-11-21T02:11:27.362Z,27.58
2022-11-21T02:13:54.716Z,26.58
2022-11-21T02:16:21.823Z,23.40
2022-11-21T02:18:48.441Z,26.92
2022-11-21T02:21:26.023Z,26.63
2022-11-21T02:24:12.540Z,26.48
2022-11-21T02:26:39.368Z,27.08
2022-11-21T02:29:06.060Z,27.05
2022-11-21T02:31:32.800Z,27.65
2022-11-21T02:33:59.466Z,25.50
2022-11-21T02:36:38.422Z,27.55
2022-11-21T02:39:11.910Z,24.48
2022-11-21T02:41:51.270Z,28.50
2022-11-21T02:44:48.441Z,24.85
2022-11-21T02:47:15.069Z,27.67
2022-11-21T02:49:48.939Z,25.63
2022-11-21T02:52:15.860Z,26.38
2022-11-21T02:54:42.568Z,25.90
2022-11-21T02:57:09.153Z,25.70
2022-11-21T02:59:35.883Z,26.83
2022-11-21T03:02:02.794Z,28.88
2022-11-21T03:04:29.682Z,24.50
2022-11-21T03:06:59.859Z,25.88
2022-11-21T03:09:26.658Z,25.75
2022-11-21T03:11:53.349Z,25.25
2022-11-21T03:14:20.031Z,26.38
2022-11-21T03:16:46.670Z,25.85
2022-11-21T03:19:13.337Z,25.52
2022-11-21T03:21:40.100Z,27.27
2022-11-21T03:24:09.870Z,25.50
2022-11-21T03:26:36.515Z,25.27
2022-11-21T03:29:03.225Z,24.45
2022-11-21T03:31:29.861Z,25.95
2022-11-21T03:33:56.510Z,25.58
2022-11-21T03:36:23.161Z,25.52
2022-11-21T03:38:49.972Z,24.55
2022-11-21T03:41:31.913Z,27.35
2022-11-21T03:44:03.967Z,27.15
2022-11-21T03:46:32.887Z,26.35
2022-11-21T03:48:59.946Z,30.70
2022-11-21T03:51:27.118Z,25.80
2022-11-21T03:53:53.852Z,26.08
2022-11-21T03:56:20.584Z,27.42
2022-11-21T03:58:47.638Z,25.50
2022-11-21T04:01:15.233Z,28.23
2022-11-21T04:03:45.572Z,28.13
2022-11-21T04:06:14.124Z,26.10
2022-11-21T04:08:40.785Z,25.55
2022-11-21T04:11:07.858Z,25.98
2022-11-21T04:13:34.709Z,27.85
2022-11-21T04:16:01.460Z,26.52
2022-11-21T04:18:28.052Z,25.83
2022-11-21T04:20:58.492Z,28.42
2022-11-21T04:23:25.843Z,28.98
2022-11-21T04:25:52.924Z,26.80
2022-11-21T04:28:19.983Z,26.55
2022-11-21T04:30:52.466Z,27.13
2022-11-21T04:33:21.486Z,28.42
2022-11-21T04:35:48.402Z,27.10
2022-11-21T04:38:18.096Z,28.08
2022-11-21T04:40:45.632Z,27.45
2022-11-21T04:43:12.332Z,26.33
2022-11-21T04:45:39.241Z,26.48
2022-11-21T04:48:06.157Z,29.98
2022-11-21T04:50:33.315Z,27.40
2022-11-21T04:53:00.087Z,26.38
2022-11-21T04:55:30.286Z,26.13
2022-11-21T04:57:57.048Z,25.98
2022-11-21T05:00:24.616Z,28.92
2022-11-21T05:02:51.788Z,27.98
2022-11-21T05:05:18.696Z,31.75
2022-11-21T05:07:45.328Z,27.55
2022-11-21T05:10:12.163Z,32.78
2022-11-21T05:12:57.654Z,30.90
2022-11-21T05:15:26.498Z,27.58
2022-11-21T05:17:53.191Z,29.15
2022-11-21T05:20:19.887Z,28.17
2022-11-21T05:22:51.833Z,28.90
2022-11-21T05:25:18.552Z,29.10
2022-11-21T05:27:45.287Z,28.48
2022-11-21T05:30:15.156Z,25.75
2022-11-21T05:32:43.596Z,27.50
2022-11-21T05:35:10.358Z,26.38
2022-11-21T05:37:37.044Z,27.38
2022-11-21T05:40:03.959Z,26.35
2022-11-21T05:42:49.287Z,30.08
2022-11-21T05:45:16.269Z,27.58
2022-11-21T05:47:42.941Z,28.15
2022-11-21T05:50:09.747Z,27.23
2022-11-21T05:52:36.384Z,27.27
2022-11-21T05:55:03.175Z,30.38
2022-11-21T05:57:31.136Z,30.83
2022-11-21T06:00:00.792Z,29.17
2022-11-21T06:02:46.228Z,29.38
2022-11-21T06:05:12.990Z,29.10
2022-11-21T06:07:39.687Z,31.50
2022-11-21T06:10:06.656Z,27.90
2022-11-21T06:12:33.379Z,27.30
2022-11-21T06:15:00.137Z,28.27
2022-11-21T06:17:26.969Z,29.45
2022-11-21T06:19:53.671Z,26.08
2022-11-21T06:22:20.428Z,27.67
2022-11-21T06:24:47.119Z,30.10
2022-11-21T06:27:13.716Z,31.60
2022-11-21T06:29:40.387Z,29.52
2022-11-21T06:32:06.996Z,31.52
2022-11-21T06:34:33.751Z,27.50
2022-11-21T06:37:00.822Z,27.38
2022-11-21T06:39:27.506Z,29.30
2022-11-21T06:41:54.215Z,29.33
2022-11-21T06:44:20.954Z,29.52
2022-11-21T06:46:51.167Z,27.33
2022-11-21T06:49:18.249Z,28.73
2022-11-21T06:51:44.891Z,30.35
2022-11-21T06:54:16.336Z,28.73
2022-11-21T06:56:43.966Z,30.02
2022-11-21T06:59:10.986Z,28.45
2022-11-21T07:01:37.731Z,27.33
2022-11-21T07:04:04.586Z,26.20
2022-11-21T07:06:31.265Z,28.58
2022-11-21T07:09:31.135Z,31.40
2022-11-21T07:11:44.591Z,28.67
2022-11-21T07:14:11.285Z,30.92
2022-11-21T07:16:38.203Z,29.35
2022-11-21T07:19:05.058Z,31.42
2022-11-21T07:21:31.677Z,29.50
2022-11-21T07:23:58.625Z,28.73
2022-11-21T07:26:25.228Z,29.30
2022-11-21T07:28:55.010Z,30.70
2022-11-21T07:31:21.725Z,34.38
2022-11-21T07:33:48.415Z,28.80
2022-11-21T07:36:15.115Z,27.95
2022-11-21T07:38:42.243Z,29.45
2022-11-21T07:41:09.703Z,31.98
2022-11-21T07:43:36.450Z,28.77
2022-11-21T07:46:03.141Z,29.45
2022-11-21T07:48:29.806Z,33.47
2022-11-21T07:50:59.342Z,32.95
2022-11-21T07:53:25.981Z,35.70
2022-11-21T07:55:52.717Z,35.47
2022-11-21T07:58:19.612Z,31.90
2022-11-21T08:00:46.283Z,35.42
2022-11-21T08:03:13.535Z,36.95
2022-11-21T08:05:42.070Z,32.67
2022-11-21T08:08:09.971Z,33.92
2022-11-21T08:10:43.286Z,31.65
2022-11-21T08:13:10.636Z,30.85
2022-11-21T08:15:37.745Z,32.72
2022-11-21T08:18:12.513Z,35.03
2022-11-21T08:20:39.589Z,28.35
2022-11-21T08:23:06.873Z,30.65
2022-11-21T08:25:34.915Z,31.73
2022-11-21T08:28:02.902Z,28.80
2022-11-21T08:30:29.943Z,29.45
2022-11-21T08:32:58.787Z,29.30
2022-11-21T08:35:26.572Z,29.65
2022-11-21T08:38:00.130Z,27.90
2022-11-21T08:40:28.420Z,30.55
2022-11-21T08:43:21.401Z,33.65
2022-11-21T08:45:48.056Z,29.92
2022-11-21T08:48:14.713Z,33.33
2022-11-21T08:50:41.376Z,30.60
2022-11-21T08:53:08.076Z,31.95
2022-11-21T08:55:34.803Z,30.27
2022-11-21T08:58:01.496Z,29.95
2022-11-21T09:00:28.393Z,27.75
2022-11-21T09:02:55.274Z,24.35
2022-11-21T09:05:22.396Z,25.38
2022-11-21T09:07:49.213Z,25.85
2022-11-21T09:10:16.229Z,26.77
2022-11-21T09:12:43.389Z,25.05
2022-11-21T09:15:29.841Z,22.58
2022-11-21T09:18:03.511Z,24.55
2022-11-21T09:20:34.852Z,22.55
2022-11-21T09:23:13.337Z,22.98
2022-11-21T09:25:40.105Z,21.58
2022-11-21T09:28:09.002Z,22.80
2022-11-21T09:30:36.066Z,19.30
2022-11-21T09:33:06.870Z,20.25
2022-11-21T09:35:33.850Z,19.30
2022-11-21T09:38:00.649Z,19.75
2022-11-21T09:40:29.542Z,17.38
2022-11-21T09:42:59.143Z,19.23
2022-11-21T09:45:42.296Z,18.75
2022-11-21T09:48:16.113Z,15.68
2022-11-21T09:50:53.805Z,14.13
2022-11-21T09:53:27.715Z,15.02
2022-11-21T09:56:11.688Z,16.27
2022-11-21T09:58:49.065Z,15.55
2022-11-21T10:01:16.937Z,19.05
2022-11-21T10:03:48.854Z,20.45
2022-11-21T10:06:27.105Z,17.60
2022-11-21T10:09:00.802Z,18.85
2022-11-21T10:12:20.875Z,18.20
2022-11-21T10:15:07.781Z,19.52
2022-11-21T10:17:41.911Z,19.23
2022-11-21T10:20:40.484Z,20.10
2022-11-21T10:23:42.668Z,24.67
2022-11-21T10:26:17.276Z,24.23
2022-11-21T10:28:59.680Z,21.35
2022-11-21T10:31:27.259Z,23.35
2022-11-21T10:33:54.587Z,23.85
2022-11-21T10:36:47.443Z,24.73
2022-11-21T10:39:19.417Z,25.30
2022-11-21T10:41:59.203Z,22.05
2022-11-21T10:44:48.806Z,22.00
2022-11-21T10:47:27.848Z,21.80
2022-11-21T10:50:06.476Z,22.42
2022-11-21T10:53:01.942Z,21.80
2022-11-21T10:55:28.680Z,23.40
2022-11-21T10:57:55.474Z,23.35
2022-11-21T11:00:24.771Z,20.08
2022-11-21T11:02:57.856Z,21.35
2022-11-21T11:05:38.057Z,21.95
2022-11-21T11:08:12.693Z,18.25
2022-11-21T11:10:44.340Z,18.70
2022-11-21T11:13:50.650Z,15.68
2022-11-21T11:16:21.339Z,17.05
2022-11-21T11:18:57.426Z,20.08
2022-11-21T11:21:44.322Z,19.42
2022-11-21T11:24:10.880Z,17.83
2022-11-21T11:26:49.785Z,16.13
2022-11-21T11:29:21.781Z,17.23
2022-11-21T11:31:57.646Z,17.60
2022-11-21T11:34:27.748Z,19.23
2022-11-21T11:36:55.692Z,19.52
2022-11-21T11:39:37.559Z,18.15
2022-11-21T11:42:34.189Z,19.33
2022-11-21T11:45:22.580Z,18.85
2022-11-21T11:48:13.978Z,20.27
2022-11-21T11:50:48.459Z,19.88
2022-11-21T11:53:23.854Z,20.75
2022-11-21T11:56:02.693Z,19.85
2022-11-21T11:58:53.417Z,18.50
2022-11-21T12:01:39.671Z,20.83
2022-11-21T12:04:13.001Z,19.20
2022-11-21T12:08:05.945Z,21.90
2022-11-21T12:10:01.908Z,21.27
2022-11-21T12:12:35.817Z,24.67
2022-11-21T12:15:45.381Z,25.00
2022-11-21T12:18:21.035Z,20.75
2022-11-21T12:21:02.876Z,17.20
2022-11-21T12:23:41.209Z,18.60
2022-11-21T12:26:40.384Z,20.92
2022-11-21T12:29:10.404Z,17.23
2022-11-21T12:31:44.444Z,17.27
2022-11-21T12:34:51.765Z,17.63
2022-11-21T12:37:50.202Z,16.38
2022-11-21T12:40:41.583Z,17.48
2022-11-21T12:43:18.714Z,19.55
2022-11-21T12:46:02.317Z,18.23
2022-11-21T12:49:12.918Z,19.05
2022-11-21T12:52:36.697Z,15.77
2022-11-21T12:55:12.159Z,17.33
2022-11-21T12:57:56.735Z,17.55
2022-11-21T13:00:49.066Z,16.77
2022-11-21T13:03:42.421Z,18.13
2022-11-21T13:06:19.719Z,18.13
2022-11-21T13:08:48.716Z,18.08
2022-11-21T13:11:47.363Z,17.50
2022-11-21T13:14:32.849Z,13.82
2022-11-21T13:17:11.117Z,12.63
2022-11-21T13:19:43.267Z,13.63
2022-11-21T13:22:36.304Z,13.40
2022-11-21T13:25:09.125Z,15.98
2022-11-21T13:27:39.157Z,16.10
2022-11-21T13:30:09.655Z,14.50
2022-11-21T13:32:44.721Z,16.17
2022-11-21T13:35:14.979Z,12.75
2022-11-21T13:38:01.313Z,13.40
2022-11-21T13:40:39.016Z,13.95
2022-11-21T13:43:31.348Z,16.65
2022-11-21T13:45:56.725Z,12.93
2022-11-21T13:48:34.790Z,13.55
2022-11-21T13:51:33.014Z,15.05
2022-11-21T13:54:17.979Z,13.32
2022-11-21T13:57:02.979Z,14.73
2022-11-21T13:59:47.050Z,15.98
2022-11-21T14:02:32.112Z,17.98
2022-11-21T14:05:04.411Z,16.50
2022-11-21T14:07:33.307Z,17.80
2022-11-21T14:10:02.128Z,18.63
2022-11-21T14:12:38.326Z,19.00
2022-11-21T14:15:24.026Z,17.92
2022-11-21T14:17:58.602Z,16.10
2022-11-21T14:20:27.824Z,18.02
2022-11-21T14:23:03.783Z,18.88
2022-11-21T14:25:33.445Z,18.48
2022-11-21T14:28:00.586Z,19.27
2022-11-21T14:30:29.848Z,18.63
2022-11-21T14:32:56.643Z,17.55
2022-11-21T14:35:24.308Z,20.58
2022-11-21T14:37:51.367Z,19.23
2022-11-21T14:40:23.073Z,20.27
2022-11-21T14:42:50.067Z,22.67
2022-11-21T14:45:19.946Z,20.00
2022-11-21T14:47:53.576Z,21.35
2022-11-21T14:50:24.766Z,19.73
2022-11-21T14:52:57.390Z,21.40
2022-11-21T14:55:31.542Z,20.73
2022-11-21T14:58:00.851Z,23.83
2022-11-21T15:00:58.120Z,22.88
2022-11-21T15:03:23.539Z,22.73
2022-11-21T15:06:05.045Z,19.98
2022-11-21T15:09:14.506Z,20.40
2022-11-21T15:11:21.862Z,20.02
2022-11-21T15:14:14.439Z,20.45
2022-11-21T15:16:38.072Z,19.38
2022-11-21T15:19:11.285Z,19.00
2022-11-21T15:21:44.451Z,19.52
2022-11-21T15:24:26.892Z,20.83
2022-11-21T15:26:53.520Z,22.30
2022-11-21T15:29:21.273Z,18.83
2022-11-21T15:32:07.434Z,17.70
2022-11-21T15:34:35.776Z,21.45
2022-11-21T15:37:13.304Z,20.25
2022-11-21T15:39:45.094Z,23.35
2022-11-21T15:42:44.264Z,22.25
2022-11-21T15:45:24.015Z,21.00
2022-11-21T15:47:51.083Z,23.20
2022-11-21T15:50:18.011Z,22.02
2022-11-21T15:52:50.134Z,21.17
2022-11-21T15:55:26.420Z,21.92
2022-11-21T15:57:53.336Z,22.73
2022-11-21T16:00:20.169Z,20.25
2022-11-21T16:02:47.441Z,19.42
2022-11-21T16:05:15.553Z,21.02
2022-11-21T16:07:42.533Z,22.63
2022-11-21T16:10:18.001Z,21.00
2022-11-21T16:12:48.494Z,22.92
2022-11-21T16:15:15.489Z,22.52
2022-11-21T16:17:42.344Z,21.48
2022-11-21T16:20:09.551Z,22.27
2022-11-21T16:22:44.185Z,22.27
2022-11-21T16:25:13.873Z,24.35
2022-11-21T16:27:40.669Z,24.55
2022-11-21T16:30:08.023Z,24.75
2022-11-21T16:32:34.882Z,24.63
2022-11-21T16:35:01.705Z,23.95
2022-11-21T16:37:28.666Z,22.15
2022-11-21T16:39:55.392Z,23.35
2022-11-21T16:42:22.283Z,24.10
2022-11-21T16:44:49.268Z,28.52
2022-11-21T16:47:15.987Z,24.88
2022-11-21T16:49:48.423Z,23.77
2022-11-21T16:52:24.065Z,29.13
2022-11-21T16:54:50.862Z,30.33
2022-11-21T16:57:17.582Z,28.15
2022-11-21T16:59:44.321Z,27.73
2022-11-21T17:02:11.130Z,28.75
2022-11-21T17:04:38.047Z,25.92
2022-11-21T17:07:04.909Z,27.23
2022-11-21T17:09:31.630Z,25.27
2022-11-21T17:11:59.405Z,26.75
2022-11-21T17:14:26.716Z,26.85
2022-11-21T17:16:53.680Z,26.75
2022-11-21T17:19:20.837Z,25.30
2022-11-21T17:21:47.679Z,25.35
2022-11-21T17:24:14.526Z,25.35
2022-11-21T17:26:41.263Z,24.33
2022-11-21T17:29:07.967Z,24.38
2022-11-21T17:31:34.913Z,25.50
2022-11-21T17:34:01.967Z,25.15
2022-11-21T17:36:30.136Z,33.03
2022-11-21T17:38:57.612Z,36.85
2022-11-21T17:41:26.172Z,38.42
2022-11-21T17:43:58.391Z,29.58
2022-11-21T17:46:26.416Z,28.27
2022-11-21T17:48:57.508Z,28.02
2022-11-21T17:51:34.510Z,26.85
2022-11-21T17:54:01.957Z,24.40
2022-11-21T17:56:31.662Z,26.00
2022-11-21T17:58:58.566Z,26.67
2022-11-21T18:01:25.683Z,28.42
2022-11-21T18:03:59.864Z,30.77
2022-11-21T18:06:28.647Z,29.80
2022-11-21T18:08:57.168Z,32.58
2022-11-21T18:11:24.568Z,28.17
2022-11-21T18:13:51.556Z,34.05
2022-11-21T18:16:20.941Z,27.83
2022-11-21T18:18:49.571Z,30.08
2022-11-21T18:21:18.799Z,28.50
2022-11-21T18:23:47.169Z,28.30
2022-11-21T18:26:23.177Z,26.90
2022-11-21T18:29:13.454Z,30.25
2022-11-21T18:31:44.142Z,28.42
2022-11-21T18:34:12.714Z,29.35
2022-11-21T18:36:39.577Z,29.25
2022-11-21T18:39:14.646Z,26.70
2022-11-21T18:41:42.380Z,30.73
2022-11-21T18:44:10.159Z,29.52
2022-11-21T18:46:38.114Z,31.27
2022-11-21T18:49:06.840Z,30.48
2022-11-21T18:51:34.749Z,31.38
2022-11-21T18:54:05.439Z,28.85
2022-11-21T18:56:32.447Z,34.10
2022-11-21T18:58:59.549Z,29.67
2022-11-21T19:01:28.136Z,28.05
2022-11-21T19:03:55.763Z,36.20
2022-11-21T19:06:23.785Z,29.45
2022-11-21T19:08:53.271Z,30.80
2022-11-21T19:11:21.281Z,32.28
2022-11-21T19:13:49.009Z,30.15
2022-11-21T19:16:18.497Z,29.33
2022-11-21T19:18:55.314Z,28.23
2022-11-21T19:21:36.700Z,27.70
2022-11-21T19:24:03.568Z,26.65
2022-11-21T19:26:31.644Z,29.30
2022-11-21T19:28:58.990Z,29.88
2022-11-21T19:31:26.129Z,29.00
2022-11-21T19:33:53.497Z,26.50
2022-11-21T19:36:22.113Z,28.20
2022-11-21T19:38:51.451Z,23.48
2022-11-21T19:41:20.090Z,28.02
2022-11-21T19:43:51.467Z,25.70
2022-11-21T19:46:21.320Z,25.00
2022-11-21T19:48:49.639Z,26.15
2022-11-21T19:51:18.001Z,26.35
2022-11-21T19:53:46.423Z,25.42
2022-11-21T19:56:18.274Z,24.80
2022-11-21T19:58:45.600Z,26.55
2022-11-21T20:01:20.463Z,48.17
2022-11-21T20:03:49.669Z,24.30
2022-11-21T20:06:24.451Z,27.00
2022-11-21T20:08:58.843Z,24.15
2022-11-21T20:11:26.642Z,22.55
2022-11-21T20:13:53.766Z,26.73
2022-11-21T20:16:32.456Z,21.33
2022-11-21T20:19:02.333Z,18.88
2022-11-21T20:21:29.781Z,25.05
2022-11-21T20:23:56.995Z,22.55
2022-11-21T20:26:24.883Z,24.15
2022-11-21T20:28:52.076Z,23.95
2022-11-21T20:31:24.916Z,25.25
2022-11-21T20:33:53.660Z,22.85
2022-11-21T20:36:22.625Z,20.15
2022-11-21T20:38:51.138Z,20.42
2022-11-21T20:41:19.241Z,19.20
2022-11-21T20:44:26.736Z,18.67
2022-11-21T20:46:34.463Z,20.83
2022-11-21T20:49:02.268Z,19.15
2022-11-21T20:54:16.300Z,19.55
2022-11-21T20:56:44.499Z,21.35
2022-11-21T20:59:11.437Z,20.13
2022-11-21T21:01:38.476Z,19.33
2022-11-21T21:04:05.516Z,19.17
2022-11-21T21:06:32.494Z,31.25
2022-11-21T21:09:00.477Z,21.92
2022-11-21T21:14:14.561Z,20.33
2022-11-21T21:16:41.442Z,21.30
2022-11-21T21:19:08.232Z,20.15
2022-11-21T21:21:35.008Z,20.67
2022-11-21T21:24:06.776Z,18.98
2022-11-21T21:26:41.744Z,17.73
2022-11-21T21:29:11.086Z,20.98
2022-11-21T21:31:37.846Z,18.13
2022-11-21T21:34:04.814Z,20.42
2022-11-21T21:36:32.286Z,21.88
2022-11-21T21:39:00.855Z,19.95
2022-11-21T21:41:30.033Z,19.88
2022-11-21T21:43:58.007Z,18.98
2022-11-21T21:46:27.339Z,18.38
2022-11-21T21:48:56.254Z,19.20
2022-11-21T21:51:25.077Z,18.50
2022-11-21T21:53:52.901Z,21.70
2022-11-21T21:56:20.851Z,20.15
2022-11-21T21:58:48.683Z,17.88
2022-11-21T22:01:20.928Z,18.00
2022-11-21T22:03:48.192Z,16.95
2022-11-21T22:06:18.935Z,18.38
2022-11-21T22:08:47.252Z,16.42
2022-11-21T22:11:16.208Z,18.15
2022-11-21T22:13:44.444Z,18.48
2022-11-21T22:16:12.383Z,20.33
2022-11-21T22:18:39.708Z,17.05
2022-11-21T22:21:24.672Z,16.17
2022-11-21T22:24:23.085Z,18.00
2022-11-21T22:26:38.113Z,18.80
2022-11-21T22:29:04.881Z,19.23
2022-11-21T22:31:31.631Z,18.58
2022-11-21T22:33:58.846Z,19.67
2022-11-21T22:36:25.840Z,20.70
2022-11-21T22:38:53.943Z,20.25
2022-11-21T22:41:22.493Z,18.17
2022-11-21T22:43:51.053Z,18.60
2022-11-21T22:46:18.155Z,19.65
2022-11-21T22:48:44.889Z,17.27
2022-11-21T22:51:19.344Z,17.90
2022-11-21T22:53:47.033Z,19.10
2022-11-21T22:56:16.806Z,21.02
2022-11-21T22:58:45.784Z,17.58
2022-11-21T23:01:14.803Z,19.42
2022-11-21T23:03:42.807Z,20.83
2022-11-21T23:06:18.747Z,18.75
2022-11-21T23:08:45.816Z,18.10
2022-11-21T23:11:31.628Z,17.65
2022-11-21T23:14:00.921Z,19.63
2022-11-21T23:16:28.754Z,19.85
2022-11-21T23:18:56.815Z,19.63
2022-11-21T23:21:23.850Z,18.70
2022-11-21T23:23:50.590Z,19.52
2022-11-21T23:26:17.261Z,18.88
2022-11-21T23:28:43.909Z,20.95
2022-11-21T23:31:10.761Z,19.00
2022-11-21T23:33:37.612Z,20.25
2022-11-21T23:36:04.695Z,21.05
2022-11-21T23:38:31.507Z,20.48
2022-11-21T23:40:58.251Z,20.25
2022-11-21T23:43:24.973Z,21.25
2022-11-21T23:45:52.552Z,21.98
2022-11-21T23:48:19.873Z,22.45
2022-11-21T23:50:47.455Z,20.65
2022-11-21T23:53:14.367Z,21.58
2022-11-21T23:55:44.494Z,22.00
2022-11-21T23:58:11.809Z,21.50
